createdAt,value
2022-12-14T00:01:49.609Z,-2.97
2022-12-14T00:04:18.555Z,-2.97
2022-12-14T00:06:47.193Z,-2.97
2022-12-14T00:09:17.238Z,-2.95
2022-12-14T00:11:46.138Z,-2.93
2022-12-14T00:14:15.573Z,-2.92
2022-12-14T00:16:45.675Z,-2.90
2022-12-14T00:19:14.447Z,-2.93
2022-12-14T00:21:43.308Z,-2.91
2022-12-14T00:24:12.066Z,-2.90
2022-12-14T00:26:40.641Z,-2.90
2022-12-14T00:29:09.461Z,-2.89
2022-12-14T00:31:38.236Z,-2.88
2022-12-14T00:34:08.636Z,-2.87
2022-12-14T00:36:37.873Z,-2.88
2022-12-14T00:39:06.555Z,-2.90
2022-12-14T00:41:35.164Z,-2.88
2022-12-14T00:44:03.999Z,-2.86
2022-12-14T00:46:32.683Z,-2.84
2022-12-14T00:49:01.265Z,-2.84
2022-12-14T00:51:31.535Z,-2.85
2022-12-14T00:54:00.149Z,-2.86
2022-12-14T00:56:28.907Z,-2.84
2022-12-14T00:58:57.491Z,-2.86
2022-12-14T01:01:26.485Z,-2.85
2022-12-14T01:04:15.560Z,-2.83
2022-12-14T01:06:45.860Z,-2.83
2022-12-14T01:09:15.034Z,-2.82
2022-12-14T01:11:43.859Z,-2.82
2022-12-14T01:14:14.492Z,-2.81
2022-12-14T01:16:43.103Z,-2.80
2022-12-14T01:19:13.260Z,-2.79
2022-12-14T01:21:42.111Z,-2.77
2022-12-14T01:24:12.773Z,-2.79
2022-12-14T01:26:41.705Z,-2.79
2022-12-14T01:29:11.827Z,-2.80
2022-12-14T01:31:40.577Z,-2.81
2022-12-14T01:34:09.254Z,-2.77
2022-12-14T01:36:38.966Z,-2.77
2022-12-14T01:39:10.530Z,-2.79
2022-12-14T01:41:42.170Z,-2.79
2022-12-14T01:44:51.253Z,-2.76
2022-12-14T01:47:24.530Z,-2.76
2022-12-14T01:49:57.896Z,-2.75
2022-12-14T01:52:29.879Z,-2.74
2022-12-14T01:55:01.764Z,-2.74
2022-12-14T01:57:35.909Z,-2.73
2022-12-14T02:00:07.611Z,-2.72
2022-12-14T02:02:37.218Z,-2.72
2022-12-14T02:05:08.445Z,-2.67
2022-12-14T02:07:37.258Z,-2.69
2022-12-14T02:10:07.762Z,-2.69
2022-12-14T02:12:41.445Z,-2.67
2022-12-14T02:15:11.486Z,-2.67
2022-12-14T02:17:40.512Z,-2.67
2022-12-14T02:20:10.127Z,-2.65
2022-12-14T02:23:18.707Z,-2.65
2022-12-14T02:26:24.940Z,-2.63
2022-12-14T02:29:22.498Z,-2.66
2022-12-14T02:31:59.737Z,-2.65
2022-12-14T02:34:33.408Z,-2.63
2022-12-14T02:37:05.409Z,-2.64
2022-12-14T02:39:41.333Z,-2.63
2022-12-14T02:42:13.468Z,-2.63
2022-12-14T02:44:51.307Z,-2.63
2022-12-14T02:47:26.961Z,-2.62
2022-12-14T02:50:03.265Z,-2.61
2022-12-14T02:52:40.242Z,-2.62
2022-12-14T02:55:14.258Z,-2.64
2022-12-14T02:57:46.142Z,-2.62
2022-12-14T03:00:17.144Z,-2.61
2022-12-14T03:02:45.922Z,-2.61
2022-12-14T03:05:14.947Z,-2.59
2022-12-14T03:07:45.956Z,-2.59
2022-12-14T03:10:26.697Z,-2.59
2022-12-14T03:12:57.879Z,-2.59
2022-12-14T03:15:29.007Z,-2.60
2022-12-14T03:18:00.179Z,-2.59
2022-12-14T03:20:31.017Z,-2.58
2022-12-14T03:23:02.160Z,-2.58
2022-12-14T03:25:35.937Z,-2.55
2022-12-14T03:28:07.924Z,-2.56
2022-12-14T03:30:59.535Z,-2.55
2022-12-14T03:33:30.388Z,-2.55
2022-12-14T03:36:02.114Z,-2.52
2022-12-14T03:38:35.148Z,-2.52
2022-12-14T03:41:13.696Z,-2.51
2022-12-14T03:43:52.631Z,-2.48
2022-12-14T03:46:32.993Z,-2.46
2022-12-14T03:49:08.263Z,-2.51
2022-12-14T03:51:42.936Z,-2.51
2022-12-14T03:54:17.809Z,-2.50
2022-12-14T03:56:53.037Z,-2.52
2022-12-14T03:59:28.023Z,-2.51
2022-12-14T04:02:02.678Z,-2.51
2022-12-14T04:04:34.856Z,-2.53
2022-12-14T04:07:08.233Z,-2.52
2022-12-14T04:09:42.347Z,-2.51
2022-12-14T04:12:31.155Z,-2.52
2022-12-14T04:15:22.518Z,-2.48
2022-12-14T04:18:11.892Z,-2.50
2022-12-14T04:20:44.151Z,-2.52
2022-12-14T04:23:15.810Z,-2.53
2022-12-14T04:26:05.159Z,-2.51
2022-12-14T04:28:55.782Z,-2.45
2022-12-14T04:31:27.345Z,-2.48
2022-12-14T04:34:02.235Z,-2.48
2022-12-14T04:36:34.219Z,-2.51
2022-12-14T04:39:05.915Z,-2.51
2022-12-14T04:41:37.721Z,-2.52
2022-12-14T04:44:09.904Z,-2.49
2022-12-14T04:46:40.902Z,-2.49
2022-12-14T04:49:17.528Z,-2.48
2022-12-14T04:51:50.428Z,-2.49
2022-12-14T04:54:22.900Z,-2.48
2022-12-14T04:56:55.045Z,-2.48
2022-12-14T04:59:24.449Z,-2.49
2022-12-14T05:02:00.151Z,-2.48
2022-12-14T05:04:40.000Z,-2.48
2022-12-14T05:07:14.169Z,-2.46
2022-12-14T05:09:46.007Z,-2.43
2022-12-14T05:12:17.987Z,-2.43
2022-12-14T05:14:50.283Z,-2.42
2022-12-14T05:17:19.228Z,-2.44
2022-12-14T05:19:50.499Z,-2.43
2022-12-14T05:22:20.689Z,-2.43
2022-12-14T05:24:49.291Z,-2.42
2022-12-14T05:27:17.980Z,-2.37
2022-12-14T05:29:46.592Z,-2.41
2022-12-14T05:32:15.305Z,-2.39
2022-12-14T05:34:43.951Z,-2.39
2022-12-14T05:37:18.245Z,-2.39
2022-12-14T05:39:47.226Z,-2.40
2022-12-14T05:42:15.902Z,-2.39
2022-12-14T05:44:44.547Z,-2.37
2022-12-14T05:47:13.967Z,-2.38
2022-12-14T05:49:42.611Z,-2.38
2022-12-14T05:52:11.299Z,-2.38
2022-12-14T05:54:41.354Z,-2.37
2022-12-14T05:57:09.954Z,-2.36
2022-12-14T05:59:38.740Z,-2.38
2022-12-14T06:02:07.606Z,-2.37
2022-12-14T06:04:36.578Z,-2.37
2022-12-14T06:07:05.618Z,-2.35
2022-12-14T06:09:34.295Z,-2.35
2022-12-14T06:12:04.355Z,-2.35
2022-12-14T06:14:32.953Z,-2.32
2022-12-14T06:17:01.577Z,-2.34
2022-12-14T06:19:30.799Z,-2.32
2022-12-14T06:21:59.458Z,-2.35
2022-12-14T06:24:28.073Z,-2.34
2022-12-14T06:26:56.769Z,-2.32
2022-12-14T06:29:26.918Z,-2.33
2022-12-14T06:31:55.561Z,-2.33
2022-12-14T06:34:28.514Z,-2.34
2022-12-14T06:36:57.516Z,-2.33
2022-12-14T06:39:26.134Z,-2.32
2022-12-14T06:41:54.730Z,-2.31
2022-12-14T06:44:23.535Z,-2.32
2022-12-14T06:46:53.596Z,-2.34
2022-12-14T06:49:22.282Z,-2.34
2022-12-14T06:51:50.988Z,-2.33
2022-12-14T06:54:20.277Z,-2.34
2022-12-14T06:56:49.305Z,-2.33
2022-12-14T06:59:18.307Z,-2.31
2022-12-14T07:01:50.298Z,-2.31
2022-12-14T07:04:21.791Z,-2.31
2022-12-14T07:06:50.652Z,-2.32
2022-12-14T07:09:19.553Z,-2.31
2022-12-14T07:11:50.307Z,-2.31
2022-12-14T07:14:19.541Z,-2.31
2022-12-14T07:16:49.078Z,-2.27
2022-12-14T07:19:19.848Z,-2.26
2022-12-14T07:21:48.730Z,-2.24
2022-12-14T07:24:17.745Z,-2.24
2022-12-14T07:26:46.805Z,-2.24
2022-12-14T07:29:16.828Z,-2.19
2022-12-14T07:31:49.557Z,-2.23
2022-12-14T07:34:20.129Z,-2.19
2022-12-14T07:36:51.654Z,-2.19
2022-12-14T07:39:20.696Z,-2.20
2022-12-14T07:41:50.588Z,-2.19
2022-12-14T07:44:22.794Z,-2.20
2022-12-14T07:46:51.464Z,-2.20
2022-12-14T07:49:21.608Z,-2.21
2022-12-14T07:51:50.541Z,-2.19
2022-12-14T07:54:19.419Z,-2.17
2022-12-14T07:56:48.069Z,-2.17
2022-12-14T07:59:19.281Z,-2.14
2022-12-14T08:01:48.122Z,-2.16
2022-12-14T08:04:19.702Z,-2.14
2022-12-14T08:06:50.007Z,-2.12
2022-12-14T08:09:20.177Z,-2.11
2022-12-14T08:11:48.929Z,-2.13
2022-12-14T08:14:19.805Z,-2.14
2022-12-14T08:16:49.415Z,-2.13
2022-12-14T08:19:19.527Z,-2.11
2022-12-14T08:21:49.515Z,-2.11
2022-12-14T08:24:19.561Z,-2.07
2022-12-14T08:26:49.555Z,-2.06
2022-12-14T08:29:18.899Z,-2.05
2022-12-14T08:31:47.618Z,-2.04
2022-12-14T08:34:21.933Z,-2.00
2022-12-14T08:36:51.926Z,-1.98
2022-12-14T08:39:21.163Z,-1.94
2022-12-14T08:41:49.813Z,-1.90
2022-12-14T08:44:18.913Z,-1.93
2022-12-14T08:46:47.759Z,-1.93
2022-12-14T08:49:17.126Z,-1.91
2022-12-14T08:51:45.818Z,-1.94
2022-12-14T08:54:17.897Z,-1.93
2022-12-14T08:56:47.418Z,-1.94
2022-12-14T08:59:43.878Z,-1.93
2022-12-14T09:02:06.732Z,-1.89
2022-12-14T09:04:36.718Z,-1.89
2022-12-14T09:07:05.509Z,-1.88
2022-12-14T09:09:38.381Z,-1.84
2022-12-14T09:12:08.058Z,-1.84
2022-12-14T09:14:37.430Z,-1.81
2022-12-14T09:17:06.445Z,-1.79
2022-12-14T09:19:35.219Z,-1.79
2022-12-14T09:22:04.060Z,-1.78
2022-12-14T09:24:32.696Z,-1.76
2022-12-14T09:27:03.070Z,-1.74
2022-12-14T09:29:31.862Z,-1.74
2022-12-14T09:32:00.526Z,-1.69
2022-12-14T09:34:29.599Z,-1.68
2022-12-14T09:36:59.014Z,-1.70
2022-12-14T09:39:29.181Z,-1.70
2022-12-14T09:42:06.358Z,-1.68
2022-12-14T09:44:48.580Z,-1.69
2022-12-14T09:47:19.774Z,-1.69
2022-12-14T09:49:52.613Z,-1.65
2022-12-14T09:52:24.165Z,-1.66
2022-12-14T09:54:53.433Z,-1.68
2022-12-14T09:57:29.351Z,-1.68
2022-12-14T09:59:58.310Z,-1.68
2022-12-14T10:02:41.989Z,-1.67
2022-12-14T10:05:39.602Z,-1.66
2022-12-14T10:08:17.150Z,-1.68
2022-12-14T10:10:55.779Z,-1.65
2022-12-14T10:13:34.480Z,-1.61
2022-12-14T10:16:11.897Z,-1.59
2022-12-14T10:19:02.033Z,-1.56
2022-12-14T10:21:43.398Z,-1.51
2022-12-14T10:24:17.529Z,-1.47
2022-12-14T10:26:49.517Z,-1.46
2022-12-14T10:29:29.064Z,-1.45
2022-12-14T10:32:06.573Z,-1.47
2022-12-14T10:34:36.256Z,-1.50
2022-12-14T10:37:15.743Z,-1.46
2022-12-14T10:40:12.485Z,-1.46
2022-12-14T10:42:49.368Z,-1.44
2022-12-14T10:45:40.491Z,-1.43
2022-12-14T10:48:27.247Z,-1.39
2022-12-14T10:51:00.995Z,-1.36
2022-12-14T10:53:40.230Z,-1.34
2022-12-14T10:56:14.978Z,-1.30
2022-12-14T10:58:43.618Z,-1.30
2022-12-14T11:01:16.730Z,-1.30
2022-12-14T11:03:50.796Z,-1.28
2022-12-14T11:06:21.239Z,-1.29
2022-12-14T11:08:51.647Z,-1.25
2022-12-14T11:11:23.528Z,-1.23
2022-12-14T11:13:53.565Z,-1.20
2022-12-14T11:16:38.083Z,-1.14
2022-12-14T11:19:26.003Z,-1.17
2022-12-14T11:22:18.724Z,-1.17
2022-12-14T11:24:51.406Z,-1.15
2022-12-14T11:27:21.718Z,-1.14
2022-12-14T11:29:51.211Z,-1.13
2022-12-14T11:32:24.404Z,-1.17
2022-12-14T11:35:00.247Z,-1.12
2022-12-14T11:37:30.144Z,-1.12
2022-12-14T11:40:01.656Z,-1.07
2022-12-14T11:42:30.390Z,-1.03
2022-12-14T11:45:20.897Z,-0.98
2022-12-14T11:48:11.900Z,-0.96
2022-12-14T11:50:41.128Z,-0.97
2022-12-14T11:53:12.953Z,-0.94
2022-12-14T11:55:43.937Z,-0.91
2022-12-14T11:58:18.783Z,-0.90
2022-12-14T12:00:50.270Z,-0.90
2022-12-14T12:03:24.704Z,-0.83
2022-12-14T12:05:54.134Z,-0.80
2022-12-14T12:08:26.159Z,-0.80
2022-12-14T12:11:01.970Z,-0.81
2022-12-14T12:13:33.000Z,-0.76
2022-12-14T12:16:02.948Z,-0.70
2022-12-14T12:18:40.335Z,-0.70
2022-12-14T12:21:17.024Z,-0.64
2022-12-14T12:23:48.558Z,-0.67
2022-12-14T12:26:21.014Z,-0.66
2022-12-14T12:28:54.230Z,-0.62
2022-12-14T12:31:27.227Z,-0.66
2022-12-14T12:34:00.584Z,-0.63
2022-12-14T12:36:30.665Z,-0.58
2022-12-14T12:39:06.346Z,-0.60
2022-12-14T12:41:45.747Z,-0.58
2022-12-14T12:44:23.797Z,-0.61
2022-12-14T12:49:53.180Z,-0.66
2022-12-14T12:52:25.370Z,-0.62
2022-12-14T12:54:58.012Z,-0.60
2022-12-14T12:57:33.458Z,-0.62
2022-12-14T13:00:05.677Z,-0.66
2022-12-14T13:02:37.259Z,-0.57
2022-12-14T13:05:44.443Z,-0.54
2022-12-14T13:08:01.962Z,-0.57
2022-12-14T13:10:33.306Z,-0.49
2022-12-14T13:13:05.227Z,-0.45
2022-12-14T13:15:37.039Z,-0.54
2022-12-14T13:18:12.383Z,-0.63
2022-12-14T13:20:42.721Z,-0.72
2022-12-14T13:23:43.547Z,-0.72
2022-12-14T13:26:28.149Z,-0.78
2022-12-14T13:29:08.831Z,-0.71
2022-12-14T13:31:42.449Z,-0.71
2022-12-14T13:34:24.636Z,-0.70
2022-12-14T13:37:29.379Z,-0.67
2022-12-14T13:40:24.012Z,-0.71
2022-12-14T13:42:58.869Z,-0.66
2022-12-14T13:45:39.155Z,-0.66
2022-12-14T13:48:10.141Z,-0.64
2022-12-14T13:50:54.326Z,-0.62
2022-12-14T13:53:30.260Z,-0.67
2022-12-14T13:56:02.366Z,-0.67
2022-12-14T13:58:35.043Z,-0.69
2022-12-14T14:01:07.445Z,-0.71
2022-12-14T14:03:51.951Z,-0.67
2022-12-14T14:06:36.687Z,-0.68
2022-12-14T14:09:44.852Z,-0.69
2022-12-14T14:12:37.253Z,-0.73
2022-12-14T14:15:51.978Z,-0.86
2022-12-14T14:18:29.541Z,-0.80
2022-12-14T14:21:30.158Z,-0.86
2022-12-14T14:24:00.961Z,-0.89
2022-12-14T14:26:31.240Z,-0.96
2022-12-14T14:29:25.423Z,-0.92
2022-12-14T14:31:59.538Z,-0.94
2022-12-14T14:34:46.877Z,-0.93
2022-12-14T14:37:34.794Z,-0.93
2022-12-14T14:40:29.488Z,-0.99
2022-12-14T14:43:08.877Z,-0.90
2022-12-14T14:45:41.585Z,-0.94
2022-12-14T14:48:22.650Z,-0.97
2022-12-14T14:51:05.898Z,-0.96
2022-12-14T14:53:36.397Z,-0.95
2022-12-14T14:56:18.729Z,-0.89
2022-12-14T14:58:47.469Z,-0.95
2022-12-14T15:01:26.620Z,-1.00
2022-12-14T15:04:00.457Z,-0.99
2022-12-14T15:06:32.691Z,-1.04
2022-12-14T15:09:06.269Z,-1.05
2022-12-14T15:11:44.123Z,-0.98
2022-12-14T15:14:39.006Z,-0.98
2022-12-14T15:17:20.488Z,-0.96
2022-12-14T15:19:50.052Z,-0.97
2022-12-14T15:22:21.248Z,-1.05
2022-12-14T15:24:53.481Z,-1.01
2022-12-14T15:27:26.249Z,-1.07
2022-12-14T15:29:55.855Z,-1.09
2022-12-14T15:32:26.482Z,-1.05
2022-12-14T15:34:59.287Z,-1.11
2022-12-14T15:37:40.027Z,-1.11
2022-12-14T15:40:12.883Z,-1.14
2022-12-14T15:42:47.916Z,-1.13
2022-12-14T15:45:17.693Z,-1.17
2022-12-14T15:47:49.434Z,-1.19
2022-12-14T15:50:30.176Z,-1.15
2022-12-14T15:53:05.624Z,-1.04
2022-12-14T15:55:36.612Z,-1.20
2022-12-14T15:58:10.943Z,-1.11
2022-12-14T16:00:43.090Z,-1.11
2022-12-14T16:03:20.804Z,-1.16
2022-12-14T16:05:50.054Z,-1.15
2022-12-14T16:08:19.436Z,-1.18
2022-12-14T16:10:50.034Z,-1.31
2022-12-14T16:13:22.938Z,-1.34
2022-12-14T16:15:51.851Z,-1.37
2022-12-14T16:18:22.510Z,-1.36
2022-12-14T16:20:58.565Z,-1.36
2022-12-14T16:23:32.187Z,-1.33
2022-12-14T16:26:04.015Z,-1.30
2022-12-14T16:28:35.330Z,-1.31
2022-12-14T16:31:06.646Z,-1.29
2022-12-14T16:33:38.285Z,-1.36
2022-12-14T16:36:09.823Z,-1.36
2022-12-14T16:38:42.755Z,-1.32
2022-12-14T16:41:12.352Z,-1.37
2022-12-14T16:43:43.046Z,-1.38
2022-12-14T16:46:18.155Z,-1.38
2022-12-14T16:49:23.158Z,-1.43
2022-12-14T16:52:07.352Z,-1.36
2022-12-14T16:54:37.626Z,-1.42
2022-12-14T16:57:08.650Z,-1.36
2022-12-14T16:59:43.272Z,-1.42
2022-12-14T17:02:29.535Z,-1.53
2022-12-14T17:05:00.928Z,-1.43
2022-12-14T17:07:31.756Z,-1.46
2022-12-14T17:10:00.654Z,-1.47
2022-12-14T17:12:29.361Z,-1.46
2022-12-14T17:14:58.134Z,-1.49
2022-12-14T17:17:31.172Z,-1.50
2022-12-14T17:20:01.713Z,-1.49
2022-12-14T17:22:33.423Z,-1.57
2022-12-14T17:25:02.573Z,-1.56
2022-12-14T17:27:31.690Z,-1.53
2022-12-14T17:30:00.558Z,-1.61
2022-12-14T17:32:31.553Z,-1.65
2022-12-14T17:35:02.146Z,-1.65
2022-12-14T17:37:36.488Z,-1.64
2022-12-14T17:40:07.563Z,-1.75
2022-12-14T17:42:36.588Z,-1.72
2022-12-14T17:45:05.979Z,-1.65
2022-12-14T17:47:34.821Z,-1.64
2022-12-14T17:50:05.336Z,-1.68
2022-12-14T17:52:34.394Z,-1.73
2022-12-14T17:55:03.163Z,-1.69
2022-12-14T17:57:31.963Z,-1.65
2022-12-14T18:00:14.626Z,-1.61
2022-12-14T18:02:45.531Z,-1.68
2022-12-14T18:05:20.311Z,-1.65
2022-12-14T18:07:49.804Z,-1.75
2022-12-14T18:10:19.848Z,-1.71
2022-12-14T18:12:49.009Z,-1.68
2022-12-14T18:15:21.405Z,-1.72
2022-12-14T18:17:51.704Z,-1.65
2022-12-14T18:20:23.495Z,-1.69
2022-12-14T18:22:53.002Z,-1.65
2022-12-14T18:25:32.449Z,-1.66
2022-12-14T18:28:01.588Z,-1.71
2022-12-14T18:30:36.938Z,-1.70
2022-12-14T18:33:08.764Z,-1.69
2022-12-14T18:35:38.894Z,-1.66
2022-12-14T18:38:08.478Z,-1.69
2022-12-14T18:40:37.792Z,-1.73
2022-12-14T18:43:07.045Z,-1.77
2022-12-14T18:45:38.127Z,-1.74
2022-12-14T18:48:07.109Z,-1.76
2022-12-14T18:50:39.632Z,-1.76
2022-12-14T18:53:15.066Z,-1.76
2022-12-14T18:55:44.475Z,-1.80
2022-12-14T18:58:17.435Z,-1.80
2022-12-14T19:00:46.863Z,-1.73
2022-12-14T19:03:16.303Z,-1.73
2022-12-14T19:05:45.996Z,-1.70
2022-12-14T19:08:16.323Z,-1.63
2022-12-14T19:10:47.503Z,-1.70
2022-12-14T19:13:24.748Z,-1.71
2022-12-14T19:15:54.154Z,-1.68
2022-12-14T19:18:23.071Z,-1.69
2022-12-14T19:20:51.829Z,-1.68
2022-12-14T19:23:22.129Z,-1.77
2022-12-14T19:25:50.789Z,-1.76
2022-12-14T19:28:32.111Z,-1.78
2022-12-14T19:31:02.342Z,-1.73
2022-12-14T19:33:32.402Z,-1.74
2022-12-14T19:36:01.567Z,-1.76
2022-12-14T19:38:31.577Z,-1.66
2022-12-14T19:41:02.219Z,-1.76
2022-12-14T19:43:31.642Z,-1.73
2022-12-14T19:46:00.659Z,-1.72
2022-12-14T19:48:29.467Z,-1.68
2022-12-14T19:50:58.171Z,-1.77
2022-12-14T19:53:27.102Z,-1.75
2022-12-14T19:55:57.112Z,-1.75
2022-12-14T19:58:25.903Z,-1.77
2022-12-14T20:00:54.778Z,-1.75
2022-12-14T20:03:24.423Z,-1.78
2022-12-14T20:05:54.325Z,-1.77
2022-12-14T20:08:23.932Z,-1.78
2022-12-14T20:10:53.647Z,-1.76
2022-12-14T20:13:25.200Z,-1.69
2022-12-14T20:15:58.434Z,-1.73
2022-12-14T20:18:28.220Z,-1.71
2022-12-14T20:21:03.765Z,-1.69
2022-12-14T20:23:33.764Z,-1.69
2022-12-14T20:26:03.030Z,-1.72
2022-12-14T20:28:33.267Z,-1.63
2022-12-14T20:31:02.219Z,-1.62
2022-12-14T20:33:31.219Z,-1.67
2022-12-14T20:36:00.423Z,-1.68
2022-12-14T20:38:29.387Z,-1.65
2022-12-14T20:41:05.538Z,-1.64
2022-12-14T20:43:40.182Z,-1.63
2022-12-14T20:46:16.685Z,-1.66
2022-12-14T20:48:48.968Z,-1.66
2022-12-14T20:51:17.833Z,-1.74
2022-12-14T20:53:49.394Z,-1.75
2022-12-14T20:56:18.156Z,-1.75
2022-12-14T20:58:49.059Z,-1.75
2022-12-14T21:01:19.153Z,-1.80
2022-12-14T21:03:48.385Z,-1.79
2022-12-14T21:06:18.360Z,-1.72
2022-12-14T21:09:04.772Z,-1.75
2022-12-14T21:11:51.472Z,-1.73
2022-12-14T21:14:22.735Z,-1.81
2022-12-14T21:16:51.602Z,-1.76
2022-12-14T21:19:20.567Z,-1.81
2022-12-14T21:21:53.551Z,-1.84
2022-12-14T21:27:17.044Z,-1.80
2022-12-14T21:29:47.943Z,-1.75
2022-12-14T21:32:17.154Z,-1.74
2022-12-14T21:34:46.738Z,-1.77
2022-12-14T21:37:15.726Z,-1.75
2022-12-14T21:39:51.943Z,-1.74
2022-12-14T21:42:22.108Z,-1.76
2022-12-14T21:44:53.232Z,-1.72
2022-12-14T21:47:23.572Z,-1.76
2022-12-14T21:49:52.448Z,-1.73
2022-12-14T21:52:22.988Z,-1.77
2022-12-14T21:54:52.086Z,-1.76
2022-12-14T21:57:40.786Z,-1.77
2022-12-14T22:00:12.807Z,-1.72
2022-12-14T22:02:42.506Z,-1.73
2022-12-14T22:05:12.079Z,-1.76
2022-12-14T22:07:40.848Z,-1.75
2022-12-14T22:10:09.935Z,-1.76
2022-12-14T22:12:38.761Z,-1.76
2022-12-14T22:15:08.222Z,-1.72
2022-12-14T22:17:38.500Z,-1.77
2022-12-14T22:20:08.321Z,-1.70
2022-12-14T22:22:37.055Z,-1.72
2022-12-14T22:25:09.153Z,-1.77
2022-12-14T22:27:38.028Z,-1.84
2022-12-14T22:30:08.588Z,-1.85
2022-12-14T22:32:38.609Z,-1.82
2022-12-14T22:35:09.585Z,-1.86
2022-12-14T22:37:38.770Z,-1.88
2022-12-14T22:40:09.033Z,-1.87
2022-12-14T22:42:37.719Z,-1.86
2022-12-14T22:45:07.643Z,-1.87
2022-12-14T22:47:37.720Z,-1.85
2022-12-14T22:50:07.471Z,-1.79
2022-12-14T22:52:36.291Z,-1.84
2022-12-14T22:55:05.938Z,-1.83
2022-12-14T22:57:39.064Z,-1.82
2022-12-14T23:00:11.510Z,-1.80
2022-12-14T23:02:46.882Z,-1.83
2022-12-14T23:05:16.683Z,-1.82
2022-12-14T23:07:45.872Z,-1.86
2022-12-14T23:10:32.102Z,-1.86
2022-12-14T23:13:18.013Z,-1.86
2022-12-14T23:16:04.214Z,-1.84
2022-12-14T23:18:52.010Z,-1.85
2022-12-14T23:21:38.231Z,-1.83
2022-12-14T23:24:26.372Z,-1.83
2022-12-14T23:27:12.842Z,-1.82
2022-12-14T23:29:59.236Z,-1.81
2022-12-14T23:32:45.873Z,-1.83
2022-12-14T23:35:33.872Z,-1.82
2022-12-14T23:38:23.448Z,-1.83
2022-12-14T23:41:09.825Z,-1.83
2022-12-14T23:43:56.059Z,-1.82
2022-12-14T23:46:42.343Z,-1.79
2022-12-14T23:49:28.650Z,-1.75
2022-12-14T23:52:16.350Z,-1.77
2022-12-14T23:55:02.260Z,-1.76
2022-12-14T23:57:48.731Z,-1.72
